Time;durP1;ratioP1;P1;durP2;ratioP2;P2;SDS_P1;SDS_P2;PMS_P1;PMS_P2;Temp;Humidity;BMP_temperature;BMP_pressure;BME280_temperature;BME280_humidity;BME280_pressure;Samples;Min_cycle;Max_cycle;Signal;HPM_P1;HPM_P2
2023/02/02 00:01:25;;;;;;;;;39.33;34.33;;;;;;;;5031711;28;8780;-67
2023/02/02 00:03:50;;;;;;;;;44.67;39.67;;;;;;;;5031756;28;8819;-66
2023/02/02 00:06:19;;;;;;;;;43.33;39.00;;;;;;;;5013922;28;9018;-66
2023/02/02 00:08:45;;;;;;;;;48.00;39.00;;;;;;;;5031763;28;8820;-66
2023/02/02 00:11:10;;;;;;;;;36.00;35.33;;;;;;;;5031691;28;8807;-65
2023/02/02 00:13:36;;;;;;;;;36.00;29.00;;;;;;;;5031792;28;8904;-66
2023/02/02 00:16:34;;;;;;;;;45.67;36.67;;;;;;;;5031568;28;8899;-65
2023/02/02 00:19:25;;;;;;;;;40.00;33.00;;;;;;;;5031614;28;8797;-67
2023/02/02 00:21:51;;;;;;;;;41.00;34.33;;;;;;;;5028337;28;8903;-66
2023/02/02 00:24:17;;;;;;;;;43.67;37.67;;;;;;;;5031352;28;9631;-66
2023/02/02 00:26:44;;;;;;;;;35.67;33.67;;;;;;;;5031209;28;8777;-66
2023/02/02 00:29:13;;;;;;;;;47.00;34.33;;;;;;;;5031532;28;8820;-66
2023/02/02 00:31:38;;;;;;;;;42.67;37.33;;;;;;;;5012969;28;8897;-66
2023/02/02 00:34:03;;;;;;;;;41.00;37.00;;;;;;;;5031656;28;8887;-66
2023/02/02 00:36:28;;;;;;;;;51.67;39.00;;;;;;;;5031215;28;8785;-66
2023/02/02 00:38:54;;;;;;;;;54.00;42.33;;;;;;;;5030896;28;8946;-65
2023/02/02 00:41:19;;;;;;;;;37.33;32.67;;;;;;;;5031239;28;9495;-66
2023/02/02 00:45:14;;;;;;;;;44.67;39.00;;;;;;;;5031033;28;8777;-66
2023/02/02 00:46:30;;;;;;;;;44.67;38.33;;;;;;;;5030832;28;8820;-65
2023/02/02 00:48:55;;;;;;;;;35.33;32.67;;;;;;;;5030772;28;9580;-66
2023/02/02 00:51:20;;;;;;;;;43.67;37.00;;;;;;;;5030856;28;8903;-66
2023/02/02 00:53:46;;;;;;;;;37.67;36.67;;;;;;;;5030645;28;8922;-66
2023/02/02 00:56:11;;;;;;;;;44.67;40.33;;;;;;;;5030604;28;8794;-66
2023/02/02 00:58:36;;;;;;;;;38.67;32.67;;;;;;;;5030739;28;8812;-66
2023/02/02 01:01:01;;;;;;;;;40.00;35.67;;;;;;;;5030693;28;8824;-65
2023/02/02 01:03:27;;;;;;;;;37.00;32.00;;;;;;;;5030915;28;8793;-65
2023/02/02 01:05:52;;;;;;;;;37.33;34.33;;;;;;;;5030550;28;8819;-65
2023/02/02 01:08:17;;;;;;;;;34.67;28.33;;;;;;;;5030522;28;8820;-65
2023/02/02 01:10:42;;;;;;;;;42.00;30.00;;;;;;;;5030402;28;8821;-66
2023/02/02 01:13:08;;;;;;;;;37.67;36.00;;;;;;;;5030347;28;8796;-65
2023/02/02 01:15:33;;;;;;;;;31.33;28.33;;;;;;;;5030390;28;8827;-64
2023/02/02 01:17:58;;;;;;;;;35.00;31.67;;;;;;;;5030275;28;8822;-65
2023/02/02 01:20:24;;;;;;;;;29.33;28.67;;;;;;;;5030282;28;9499;-66
2023/02/02 01:22:50;;;;;;;;;30.00;28.33;;;;;;;;5030240;28;8780;-67
2023/02/02 01:25:15;;;;;;;;;30.00;23.67;;;;;;;;5030144;28;8808;-65
2023/02/02 01:27:41;;;;;;;;;33.67;30.67;;;;;;;;5030098;28;8780;-66
2023/02/02 01:30:07;;;;;;;;;30.67;28.67;;;;;;;;5012382;28;8828;-66
2023/02/02 01:32:32;;;;;;;;;28.00;25.33;;;;;;;;5030312;28;8903;-66
2023/02/02 01:34:57;;;;;;;;;4.67;0.00;;;;;;;;5030430;28;8792;-66
2023/02/02 01:37:22;;;;;;;;;23.00;23.00;;;;;;;;5029837;28;9569;-65
2023/02/02 01:39:48;;;;;;;;;21.00;19.00;;;;;;;;5029899;28;8931;-66
2023/02/02 01:42:14;;;;;;;;;23.33;21.33;;;;;;;;5030088;28;8835;-66
2023/02/02 01:44:58;;;;;;;;;21.00;20.00;;;;;;;;5029164;28;8994;-66
2023/02/02 01:47:25;;;;;;;;;33.67;27.33;;;;;;;;5029644;28;8776;-65
2023/02/02 01:49:52;;;;;;;;;32.33;23.67;;;;;;;;5029433;28;8816;-67
2023/02/02 01:52:20;;;;;;;;;26.67;22.33;;;;;;;;5029682;28;8951;-67
2023/02/02 01:54:49;;;;;;;;;29.67;23.00;;;;;;;;5029614;28;9491;-66
2023/02/02 01:57:17;;;;;;;;;24.33;23.33;;;;;;;;5029639;28;8958;-66
2023/02/02 01:59:45;;;;;;;;;16.67;16.33;;;;;;;;5029524;28;8777;-66
2023/02/02 02:02:11;;;;;;;;;24.67;24.00;;;;;;;;5029543;28;8784;-65
2023/02/02 02:04:36;;;;;;;;;23.00;21.67;;;;;;;;5011543;28;8808;-65
2023/02/02 02:07:03;;;;;;;;;29.33;26.67;;;;;;;;5029352;28;8788;-65
2023/02/02 02:09:28;;;;;;;;;24.00;20.67;;;;;;;;5029293;28;8805;-65
2023/02/02 02:11:54;;;;;;;;;30.67;27.00;;;;;;;;5028022;28;9089;-65
2023/02/02 02:17:13;;;;;;;;;29.67;27.33;;;;;;;;5029176;28;8801;-65
2023/02/02 07:21:47;;;;;;;;;41.75;38.50;;;;;;;;4893478;27;13508;-71
2023/02/02 07:24:12;;;;;;;;;41.00;32.50;;;;;;;;4988537;28;11962;-67
2023/02/02 07:26:37;;;;;;;;;33.50;31.00;;;;;;;;5046245;28;8831;-66
2023/02/02 07:29:03;;;;;;;;;29.33;25.33;;;;;;;;5044884;28;8970;-63
2023/02/02 07:31:29;;;;;;;;;31.00;29.33;;;;;;;;5045386;28;8822;-64
2023/02/02 07:33:54;;;;;;;;;26.33;24.00;;;;;;;;5045970;28;8799;-65
2023/02/02 07:36:20;;;;;;;;;6.75;1.00;;;;;;;;5046175;28;8787;-64
2023/02/02 07:38:46;;;;;;;;;25.00;22.33;;;;;;;;5045935;28;8816;-66
2023/02/02 07:41:12;;;;;;;;;27.00;23.67;;;;;;;;5045316;28;8819;-64
2023/02/02 07:43:37;;;;;;;;;30.33;24.33;;;;;;;;5045755;28;8835;-63
2023/02/02 07:46:06;;;;;;;;;33.00;27.67;;;;;;;;5045544;28;8912;-64
2023/02/02 07:48:32;;;;;;;;;26.33;23.33;;;;;;;;5045637;28;8796;-65
2023/02/02 07:51:01;;;;;;;;;25.67;22.00;;;;;;;;5045632;28;9623;-66
2023/02/02 07:53:27;;;;;;;;;24.75;23.75;;;;;;;;5046023;28;8885;-64
2023/02/02 07:55:52;;;;;;;;;27.75;22.50;;;;;;;;5043015;28;11537;-64
2023/02/02 07:58:17;;;;;;;;;31.50;21.00;;;;;;;;5045835;28;9727;-64
2023/02/02 08:00:43;;;;;;;;;27.00;27.00;;;;;;;;5044880;28;8819;-63
2023/02/02 08:03:10;;;;;;;;;27.50;25.75;;;;;;;;5045144;28;8835;-64
2023/02/02 08:05:35;;;;;;;;;43.00;41.00;;;;;;;;5045505;28;8831;-64
2023/02/02 08:08:00;;;;;;;;;54.50;42.00;;;;;;;;5045229;28;11571;-65
2023/02/02 08:10:25;;;;;;;;;33.75;33.00;;;;;;;;5045673;28;8827;-64
2023/02/02 08:12:51;;;;;;;;;62.00;51.25;;;;;;;;5045581;28;8818;-64
2023/02/02 08:15:16;;;;;;;;;73.00;56.00;;;;;;;;5045222;28;8820;-64
2023/02/02 08:17:48;;;;;;;;;52.25;46.75;;;;;;;;5044926;28;8796;-64
2023/02/02 08:20:14;;;;;;;;;31.00;31.00;;;;;;;;5044326;28;8956;-63
2023/02/02 08:22:40;;;;;;;;;37.75;34.75;;;;;;;;5043403;28;11709;-64
2023/02/02 08:25:05;;;;;;;;;44.00;40.00;;;;;;;;5044707;28;8835;-64
2023/02/02 08:27:30;;;;;;;;;50.33;42.00;;;;;;;;5044891;28;8824;-64
2023/02/02 08:29:56;;;;;;;;;51.67;46.67;;;;;;;;5044669;28;8843;-65
2023/02/02 08:32:21;;;;;;;;;67.00;55.00;;;;;;;;5035787;28;8913;-64
2023/02/02 08:34:50;;;;;;;;;68.67;58.00;;;;;;;;5031636;28;8821;-64
2023/02/02 08:37:16;;;;;;;;;43.00;41.00;;;;;;;;5031976;28;9693;-64
2023/02/02 08:39:41;;;;;;;;;46.33;40.67;;;;;;;;5031274;28;8909;-64
2023/02/02 08:42:07;;;;;;;;;42.00;38.00;;;;;;;;5031722;28;8791;-63
2023/02/02 08:44:32;;;;;;;;;56.33;44.00;;;;;;;;5031651;28;8800;-64
2023/02/02 08:46:57;;;;;;;;;50.67;43.33;;;;;;;;5046469;28;8808;-63
2023/02/02 08:49:22;;;;;;;;;40.67;36.67;;;;;;;;5065064;28;8946;-63
2023/02/02 08:51:48;;;;;;;;;49.67;45.00;;;;;;;;5031762;28;8942;-64
2023/02/02 08:54:13;;;;;;;;;51.00;42.67;;;;;;;;5030798;28;8808;-63
2023/02/02 08:56:38;;;;;;;;;47.33;45.00;;;;;;;;5030932;28;8843;-63
2023/02/02 08:59:04;;;;;;;;;55.00;47.33;;;;;;;;5030635;28;8844;-63
2023/02/02 09:01:31;;;;;;;;;44.67;39.33;;;;;;;;5028177;28;8843;-64
2023/02/02 09:04:01;;;;;;;;;52.00;49.00;;;;;;;;5031008;28;8816;-63
2023/02/02 09:06:27;;;;;;;;;58.67;48.33;;;;;;;;5031367;28;8808;-63
2023/02/02 09:08:53;;;;;;;;;50.33;45.00;;;;;;;;5031605;28;8925;-64
2023/02/02 09:11:18;;;;;;;;;51.33;45.67;;;;;;;;5031210;28;8831;-64
2023/02/02 09:13:44;;;;;;;;;51.00;45.00;;;;;;;;5031634;28;8792;-63
2023/02/02 09:16:11;;;;;;;;;47.33;45.00;;;;;;;;5040101;28;8898;-64
2023/02/02 09:18:36;;;;;;;;;52.00;47.00;;;;;;;;5039167;28;8812;-64
2023/02/02 09:21:03;;;;;;;;;51.67;48.67;;;;;;;;5029656;28;8844;-62
2023/02/02 09:23:29;;;;;;;;;43.00;42.00;;;;;;;;5030895;28;8951;-62
2023/02/02 09:25:54;;;;;;;;;56.33;49.67;;;;;;;;5028482;28;8962;-63
2023/02/02 09:28:20;;;;;;;;;51.33;48.00;;;;;;;;5031452;28;8795;-63
2023/02/02 09:30:45;;;;;;;;;54.67;45.00;;;;;;;;5031103;28;8816;-63
2023/02/02 09:33:10;;;;;;;;;55.67;45.67;;;;;;;;5031080;28;8827;-64
2023/02/02 09:35:35;;;;;;;;;45.67;38.33;;;;;;;;5031061;28;8811;-63
2023/02/02 09:38:01;;;;;;;;;56.00;49.00;;;;;;;;5031391;28;8926;-63
2023/02/02 09:40:29;;;;;;;;;49.00;46.00;;;;;;;;5031100;28;8811;-63
2023/02/02 09:43:24;;;;;;;;;54.33;43.33;;;;;;;;5029690;28;8914;-64
2023/02/02 09:45:52;;;;;;;;;55.00;48.33;;;;;;;;5019395;28;8843;-65
2023/02/02 09:48:23;;;;;;;;;56.33;49.67;;;;;;;;5031197;28;8816;-64
2023/02/02 09:50:51;;;;;;;;;51.33;41.33;;;;;;;;5030930;28;8823;-67
2023/02/02 09:53:28;;;;;;;;;62.00;49.00;;;;;;;;5030741;28;9479;-64
2023/02/02 09:55:58;;;;;;;;;54.00;47.33;;;;;;;;5030835;28;8792;-64
2023/02/02 09:58:30;;;;;;;;;52.00;47.33;;;;;;;;5031078;28;8796;-64
2023/02/02 10:01:13;;;;;;;;;43.33;39.33;;;;;;;;5030732;28;8807;-64
2023/02/02 10:03:41;;;;;;;;;49.33;46.00;;;;;;;;5030810;28;8847;-64
2023/02/02 10:06:27;;;;;;;;;56.00;48.33;;;;;;;;5030899;28;8794;-65
2023/02/02 10:08:58;;;;;;;;;55.00;44.00;;;;;;;;5030433;28;8835;-64
2023/02/02 10:11:23;;;;;;;;;48.67;41.67;;;;;;;;5030621;28;8985;-63
2023/02/02 10:13:49;;;;;;;;;50.00;44.00;;;;;;;;5030573;28;8851;-64
2023/02/02 10:16:18;;;;;;;;;55.00;44.67;;;;;;;;5039453;28;8813;-64
2023/02/02 10:18:47;;;;;;;;;48.33;45.00;;;;;;;;5037584;28;8911;-64
2023/02/02 10:21:30;;;;;;;;;49.67;45.33;;;;;;;;5030497;28;8819;-64
2023/02/02 10:23:56;;;;;;;;;34.00;34.00;;;;;;;;5030571;28;8820;-64
2023/02/02 10:26:26;;;;;;;;;47.33;43.33;;;;;;;;5030244;28;8807;-66
2023/02/02 10:28:52;;;;;;;;;46.00;44.00;;;;;;;;5030166;28;8792;-63
2023/02/02 10:31:27;;;;;;;;;59.67;47.00;;;;;;;;5030181;28;8851;-63
2023/02/02 10:34:04;;;;;;;;;47.00;44.00;;;;;;;;5030188;28;8918;-64
2023/02/02 10:36:44;;;;;;;;;44.67;37.67;;;;;;;;5029882;28;8877;-64
2023/02/02 10:39:17;;;;;;;;;46.67;44.67;;;;;;;;5029836;28;8834;-64
2023/02/02 10:41:53;;;;;;;;;55.33;45.00;;;;;;;;5030050;28;8812;-64
2023/02/02 10:44:21;;;;;;;;;19.00;14.67;;;;;;;;5030015;28;8815;-63
2023/02/02 10:46:51;;;;;;;;;47.67;41.00;;;;;;;;5043037;28;8809;-63
2023/02/02 10:49:31;;;;;;;;;46.67;42.33;;;;;;;;5032221;28;8808;-64
2023/02/02 10:52:15;;;;;;;;;49.33;43.33;;;;;;;;5030066;28;8796;-64
2023/02/02 10:54:49;;;;;;;;;50.00;39.00;;;;;;;;5061499;28;8819;-64
2023/02/02 10:57:19;;;;;;;;;47.00;43.33;;;;;;;;5029825;28;8830;-63
2023/02/02 10:59:56;;;;;;;;;43.33;38.67;;;;;;;;5029700;28;9004;-64
2023/02/02 11:02:21;;;;;;;;;43.33;36.00;;;;;;;;5029808;28;9604;-64
2023/02/02 11:07:30;;;;;;;;;49.67;43.67;;;;;;;;5029711;28;8780;-64
2023/02/02 11:09:56;;;;;;;;;33.67;33.67;;;;;;;;5029479;28;8861;-63
2023/02/02 11:12:21;;;;;;;;;30.33;25.00;;;;;;;;5029423;28;8823;-64
2023/02/02 11:14:51;;;;;;;;;24.00;24.00;;;;;;;;5029468;28;8859;-64
2023/02/02 11:17:20;;;;;;;;;33.50;29.50;;;;;;;;5045952;28;8797;-66
2023/02/02 11:19:46;;;;;;;;;;;;;;;;;;5032074;28;11654;-66
2023/02/02 11:22:29;;;;;;;;;20.00;18.75;;;;;;;;5026274;28;7521;-65
2023/02/02 11:24:55;;;;;;;;;22.50;21.00;;;;;;;;5028735;28;8935;-65
2023/02/02 11:27:22;;;;;;;;;29.00;25.00;;;;;;;;5028811;28;10526;-66
2023/02/02 11:29:52;;;;;;;;;27.50;27.25;;;;;;;;5029114;28;10287;-66
2023/02/02 11:32:17;;;;;;;;;25.33;22.67;;;;;;;;5028858;28;9984;-66
2023/02/02 11:34:42;;;;;;;;;23.33;23.00;;;;;;;;5029137;28;9434;-66
2023/02/02 11:37:12;;;;;;;;;19.33;18.33;;;;;;;;5028822;28;8926;-66
2023/02/02 11:39:38;;;;;;;;;18.00;16.75;;;;;;;;5029025;28;8950;-66
2023/02/02 11:42:06;;;;;;;;;13.25;11.75;;;;;;;;5028487;28;8841;-65
2023/02/02 11:44:34;;;;;;;;;17.00;16.00;;;;;;;;5028991;28;8873;-66
2023/02/02 11:47:01;;;;;;;;;12.33;11.67;;;;;;;;5030701;28;8807;-66
2023/02/02 11:49:27;;;;;;;;;18.67;15.33;;;;;;;;5027805;28;8961;-66
2023/02/02 11:51:59;;;;;;;;;19.50;14.50;;;;;;;;5028717;28;9366;-65
2023/02/02 11:54:30;;;;;;;;;12.00;9.00;;;;;;;;5028991;28;9821;-65
2023/02/02 11:56:58;;;;;;;;;20.25;16.00;;;;;;;;5028849;28;10192;-65
2023/02/02 11:59:37;;;;;;;;;17.75;16.75;;;;;;;;5027517;28;10672;-66
2023/02/02 12:02:25;;;;;;;;;20.25;20.00;;;;;;;;5026722;28;10815;-65
2023/02/02 12:04:52;;;;;;;;;23.25;20.50;;;;;;;;5026438;28;11110;-64
2023/02/02 12:07:26;;;;;;;;;17.00;15.50;;;;;;;;5029504;28;11516;-65
2023/02/02 12:09:51;;;;;;;;;15.00;14.25;;;;;;;;5028982;28;11478;-66
2023/02/02 12:12:17;;;;;;;;;10.00;10.00;;;;;;;;5031527;28;11588;-65
2023/02/02 12:14:47;;;;;;;;;11.75;10.75;;;;;;;;5031633;28;8796;-64
2023/02/02 12:17:37;;;;;;;;;8.75;7.25;;;;;;;;5031350;28;8807;-64
2023/02/02 12:20:07;;;;;;;;;11.75;11.75;;;;;;;;5030463;28;11406;-65
2023/02/02 12:22:44;;;;;;;;;20.25;16.75;;;;;;;;5029165;28;11481;-65
2023/02/02 12:25:28;;;;;;;;;18.50;13.00;;;;;;;;5031023;28;11555;-64
2023/02/02 12:28:02;;;;;;;;;20.00;13.25;;;;;;;;5028659;28;11522;-65
2023/02/02 12:30:44;;;;;;;;;14.50;11.00;;;;;;;;5030997;28;11558;-64
2023/02/02 12:33:20;;;;;;;;;17.00;17.00;;;;;;;;5031124;28;11521;-64
2023/02/02 12:36:00;;;;;;;;;14.75;13.00;;;;;;;;5030623;28;11523;-65
2023/02/02 12:38:44;;;;;;;;;12.00;12.00;;;;;;;;5030982;28;11615;-66
2023/02/02 12:41:16;;;;;;;;;13.75;12.75;;;;;;;;5062733;28;12245;-66
2023/02/02 12:43:43;;;;;;;;;13.00;12.75;;;;;;;;5030804;28;11539;-65
2023/02/02 12:46:16;;;;;;;;;14.50;11.50;;;;;;;;5032871;28;11548;-65
2023/02/02 12:48:54;;;;;;;;;15.00;12.50;;;;;;;;5031351;28;11521;-65
2023/02/02 12:51:22;;;;;;;;;15.50;12.25;;;;;;;;5060008;28;11583;-65
2023/02/02 12:54:00;;;;;;;;;14.00;14.00;;;;;;;;5030679;28;11571;-65
2023/02/02 12:56:29;;;;;;;;;12.75;12.75;;;;;;;;5029069;28;11582;-65
2023/02/02 12:58:54;;;;;;;;;15.50;13.50;;;;;;;;5030598;28;11552;-65
2023/02/02 13:01:31;;;;;;;;;11.25;11.25;;;;;;;;5030509;28;12357;-65
2023/02/02 13:04:05;;;;;;;;;16.00;12.25;;;;;;;;5027770;28;8820;-65
2023/02/02 13:06:34;;;;;;;;;12.25;10.50;;;;;;;;5062173;28;11551;-65
2023/02/02 13:09:06;;;;;;;;;14.50;11.00;;;;;;;;5062227;28;11656;-65
2023/02/02 13:11:48;;;;;;;;;8.50;8.50;;;;;;;;5030010;28;12373;-65
2023/02/02 13:14:14;;;;;;;;;12.50;12.00;;;;;;;;5030402;28;11507;-68
2023/02/02 13:16:43;;;;;;;;;18.75;15.25;;;;;;;;5030428;28;11556;-66
2023/02/02 13:19:14;;;;;;;;;18.25;14.50;;;;;;;;5030089;28;12329;-65
2023/02/02 13:21:40;;;;;;;;;13.50;12.50;;;;;;;;5029082;28;11562;-65
2023/02/02 13:24:09;;;;;;;;;15.00;12.50;;;;;;;;5029870;28;11552;-66
2023/02/02 13:26:40;;;;;;;;;12.75;10.00;;;;;;;;5030952;28;11539;-65
2023/02/02 13:29:17;;;;;;;;;11.75;11.75;;;;;;;;5031405;28;12352;-64
2023/02/02 13:31:55;;;;;;;;;12.00;10.75;;;;;;;;5030702;28;12359;-65
2023/02/02 13:34:25;;;;;;;;;11.00;11.00;;;;;;;;5031735;28;12295;-66
2023/02/02 13:36:53;;;;;;;;;13.75;12.00;;;;;;;;5029705;28;12461;-66
2023/02/02 13:39:45;;;;;;;;;14.50;12.00;;;;;;;;5029561;28;11619;-66
2023/02/02 13:42:20;;;;;;;;;9.00;9.00;;;;;;;;5043484;28;11447;-66
2023/02/02 13:44:49;;;;;;;;;12.50;11.00;;;;;;;;5047107;28;11421;-66
2023/02/02 13:47:33;;;;;;;;;8.00;8.00;;;;;;;;5046608;28;11450;-67
2023/02/02 13:50:03;;;;;;;;;11.25;11.00;;;;;;;;5044499;28;11473;-67
2023/02/02 13:52:40;;;;;;;;;13.00;11.00;;;;;;;;5046866;28;11426;-69
2023/02/02 13:55:17;;;;;;;;;11.25;10.00;;;;;;;;5030191;28;11658;-66
2023/02/02 13:58:11;;;;;;;;;14.00;11.00;;;;;;;;5046835;28;11435;-65
2023/02/02 14:00:47;;;;;;;;;11.00;11.00;;;;;;;;5048185;28;11526;-66
2023/02/02 14:03:21;;;;;;;;;11.50;11.00;;;;;;;;5047547;28;11554;-66
2023/02/02 14:06:01;;;;;;;;;12.50;11.00;;;;;;;;5046689;28;12301;-66
2023/02/02 14:08:28;;;;;;;;;10.25;7.50;;;;;;;;5045772;28;11480;-66
2023/02/02 14:10:53;;;;;;;;;11.50;10.50;;;;;;;;5046690;28;11464;-66
2023/02/02 14:16:05;;;;;;;;;9.50;9.00;;;;;;;;5055601;28;8782;-66
2023/02/02 14:18:50;;;;;;;;;8.00;8.00;;;;;;;;5051372;28;11660;-66
2023/02/02 14:21:45;;;;;;;;;12.75;11.75;;;;;;;;5062113;28;12349;-65
2023/02/02 14:24:26;;;;;;;;;14.00;11.50;;;;;;;;5029083;28;11642;-65
2023/02/02 14:26:55;;;;;;;;;11.50;11.00;;;;;;;;5029921;28;12340;-66
2023/02/02 14:29:38;;;;;;;;;9.00;8.00;;;;;;;;5029197;28;11579;-65
2023/02/02 14:32:06;;;;;;;;;11.75;10.50;;;;;;;;5030053;28;12298;-64
2023/02/02 14:34:43;;;;;;;;;14.00;11.00;;;;;;;;5030356;28;11573;-65
2023/02/02 14:37:09;;;;;;;;;29.25;24.00;;;;;;;;5029961;28;11557;-65
2023/02/02 14:39:39;;;;;;;;;11.50;11.50;;;;;;;;5030135;28;12319;-66
2023/02/02 14:45:09;;;;;;;;;15.50;13.00;;;;;;;;5029453;28;11499;-65
2023/02/02 14:47:43;;;;;;;;;16.00;15.25;;;;;;;;5046237;28;11575;-65
2023/02/02 14:50:14;;;;;;;;;20.00;15.50;;;;;;;;5029730;28;11597;-65
2023/02/02 14:52:40;;;;;;;;;13.25;10.50;;;;;;;;5029846;28;12247;-64
2023/02/02 14:55:15;;;;;;;;;11.00;10.00;;;;;;;;5029732;28;11559;-65
2023/02/02 14:57:41;;;;;;;;;12.00;8.00;;;;;;;;5028675;28;8938;-65
2023/02/02 15:00:19;;;;;;;;;16.25;11.75;;;;;;;;5028559;28;11480;-64
2023/02/02 15:02:48;;;;;;;;;11.75;9.50;;;;;;;;5029434;28;11536;-65
2023/02/02 15:05:29;;;;;;;;;11.50;9.00;;;;;;;;5029768;28;11483;-64
2023/02/02 15:08:14;;;;;;;;;8.75;8.75;;;;;;;;5029574;28;11499;-65
2023/02/02 15:10:50;;;;;;;;;8.75;8.00;;;;;;;;5029796;28;11475;-65
2023/02/02 15:13:17;;;;;;;;;12.00;11.25;;;;;;;;5061308;28;11601;-65
2023/02/02 15:15:44;;;;;;;;;10.00;8.25;;;;;;;;5034279;28;11521;-65
2023/02/02 15:18:14;;;;;;;;;11.00;9.00;;;;;;;;5040557;28;11490;-64
2023/02/02 15:20:43;;;;;;;;;11.75;11.00;;;;;;;;5029492;28;11515;-65
2023/02/02 15:23:22;;;;;;;;;12.75;12.00;;;;;;;;5029564;28;11506;-65
2023/02/02 15:25:47;;;;;;;;;10.00;10.00;;;;;;;;5029424;28;11514;-64
2023/02/02 15:28:31;;;;;;;;;8.00;8.00;;;;;;;;5029279;28;11521;-67
2023/02/02 15:31:01;;;;;;;;;12.25;11.00;;;;;;;;5029289;28;8974;-66
2023/02/02 15:33:35;;;;;;;;;9.25;7.75;;;;;;;;5029260;28;11554;-66
2023/02/02 15:36:03;;;;;;;;;12.50;11.00;;;;;;;;5029429;28;11584;-67
2023/02/02 15:38:34;;;;;;;;;10.50;10.50;;;;;;;;4979474;28;11558;-66
2023/02/02 15:41:03;;;;;;;;;12.75;11.00;;;;;;;;5004936;28;12526;-66
2023/02/02 15:43:29;;;;;;;;;12.75;11.00;;;;;;;;5009461;28;11567;-66
2023/02/02 15:46:00;;;;;;;;;13.00;11.00;;;;;;;;5011849;28;11525;-64
2023/02/02 15:48:29;;;;;;;;;12.75;11.50;;;;;;;;5008007;28;8842;-65
2023/02/02 15:50:57;;;;;;;;;9.00;9.00;;;;;;;;5011883;28;11739;-65
2023/02/02 15:53:23;;;;;;;;;9.50;8.50;;;;;;;;5010851;28;12262;-65
2023/02/02 15:55:48;;;;;;;;;12.00;11.00;;;;;;;;5010783;28;11500;-64
2023/02/02 15:58:28;;;;;;;;;14.75;14.25;;;;;;;;5013117;28;8938;-66
2023/02/02 16:01:00;;;;;;;;;14.00;12.25;;;;;;;;5013063;28;8820;-65
2023/02/02 16:03:31;;;;;;;;;9.00;9.00;;;;;;;;5012872;28;11666;-65
2023/02/02 16:05:57;;;;;;;;;17.50;14.75;;;;;;;;5012930;28;11481;-65
2023/02/02 16:08:27;;;;;;;;;8.75;7.50;;;;;;;;5012044;28;11539;-65
2023/02/02 16:11:05;;;;;;;;;13.00;11.25;;;;;;;;5009098;28;12346;-65
2023/02/02 16:13:31;;;;;;;;;14.25;12.00;;;;;;;;5012387;28;11552;-66
2023/02/02 16:16:00;;;;;;;;;13.50;12.00;;;;;;;;4959010;28;12335;-64
2023/02/02 16:18:26;;;;;;;;;14.50;12.50;;;;;;;;5010055;28;11587;-69
2023/02/02 16:20:52;;;;;;;;;14.00;14.00;;;;;;;;5024515;28;11583;-66
2023/02/02 16:23:21;;;;;;;;;12.00;11.50;;;;;;;;5011404;28;8833;-65
2023/02/02 16:25:48;;;;;;;;;18.25;15.00;;;;;;;;5009636;28;11557;-65
2023/02/02 16:28:15;;;;;;;;;14.50;13.75;;;;;;;;5010606;28;11563;-65
2023/02/02 16:30:42;;;;;;;;;16.50;13.00;;;;;;;;5011458;28;11683;-68
2023/02/02 16:33:25;;;;;;;;;18.00;12.00;;;;;;;;5011594;28;11519;-66
2023/02/02 16:35:51;;;;;;;;;16.50;14.75;;;;;;;;5012433;28;11517;-65
2023/02/02 16:38:16;;;;;;;;;13.25;10.50;;;;;;;;5042748;28;11800;-66
2023/02/02 16:40:41;;;;;;;;;20.00;15.00;;;;;;;;5009896;28;8837;-66
2023/02/02 16:43:15;;;;;;;;;17.00;15.25;;;;;;;;5009937;28;8845;-66
2023/02/02 16:45:48;;;;;;;;;15.25;11.00;;;;;;;;5009718;28;8836;-66
2023/02/02 16:48:19;;;;;;;;;16.50;16.50;;;;;;;;5009625;28;11533;-69
2023/02/02 16:50:45;;;;;;;;;23.00;17.25;;;;;;;;5009535;28;11687;-65
2023/02/02 16:53:20;;;;;;;;;22.00;18.75;;;;;;;;5009043;28;11745;-66
2023/02/02 16:55:46;;;;;;;;;26.00;21.50;;;;;;;;5006831;28;8806;-65
2023/02/02 16:58:14;;;;;;;;;20.50;17.75;;;;;;;;5000541;28;11567;-66
2023/02/02 17:00:42;;;;;;;;;28.00;23.00;;;;;;;;4992050;28;11779;-65
2023/02/02 17:03:09;;;;;;;;;21.25;21.25;;;;;;;;4991914;28;11573;-66
2023/02/02 17:05:47;;;;;;;;;24.50;22.75;;;;;;;;4992548;28;11591;-66
2023/02/02 17:08:12;;;;;;;;;31.25;24.25;;;;;;;;4992311;28;11588;-66
2023/02/02 17:10:42;;;;;;;;;28.50;25.50;;;;;;;;4991788;28;11585;-67
2023/02/02 17:13:26;;;;;;;;;37.25;28.25;;;;;;;;4991942;28;8797;-67
2023/02/02 17:15:51;;;;;;;;;24.50;21.75;;;;;;;;4997488;28;11543;-67
2023/02/02 17:18:16;;;;;;;;;27.00;23.25;;;;;;;;5010984;28;11574;-66
2023/02/02 17:20:42;;;;;;;;;29.25;21.00;;;;;;;;5011306;28;8838;-65
2023/02/02 17:23:08;;;;;;;;;23.75;20.25;;;;;;;;5010916;28;8817;-67
2023/02/02 17:25:36;;;;;;;;;26.25;24.50;;;;;;;;5011295;28;8795;-65
2023/02/02 17:28:02;;;;;;;;;27.00;25.75;;;;;;;;5011510;28;11588;-66
2023/02/02 17:30:28;;;;;;;;;24.00;22.25;;;;;;;;5042692;28;12300;-67
2023/02/02 17:32:53;;;;;;;;;22.00;22.00;;;;;;;;5010837;28;11620;-67
2023/02/02 17:35:20;;;;;;;;;27.50;22.00;;;;;;;;5011220;28;11758;-66
2023/02/02 17:37:46;;;;;;;;;22.00;21.25;;;;;;;;5010934;28;8817;-66
2023/02/02 17:40:13;;;;;;;;;28.75;26.75;;;;;;;;5010576;28;11551;-66
2023/02/02 17:42:38;;;;;;;;;21.75;21.25;;;;;;;;5010089;28;8806;-67
2023/02/02 17:45:08;;;;;;;;;14.50;9.75;;;;;;;;5001824;28;11574;-66
2023/02/02 17:47:36;;;;;;;;;19.25;19.25;;;;;;;;5010605;28;8822;-65
2023/02/02 17:50:01;;;;;;;;;28.75;27.25;;;;;;;;5010455;28;11600;-65
2023/02/02 17:52:27;;;;;;;;;27.25;23.75;;;;;;;;5042438;28;12430;-65
2023/02/02 17:54:52;;;;;;;;;30.75;26.00;;;;;;;;5009098;28;8830;-66
2023/02/02 17:57:17;;;;;;;;;26.50;26.25;;;;;;;;5010738;28;8834;-66
2023/02/02 17:59:42;;;;;;;;;35.50;27.00;;;;;;;;5009340;28;8830;-66
2023/02/02 18:02:11;;;;;;;;;26.75;26.00;;;;;;;;5010669;28;8822;-66
2023/02/02 18:04:36;;;;;;;;;28.25;26.75;;;;;;;;5009627;28;8795;-65
2023/02/02 18:07:02;;;;;;;;;31.50;27.00;;;;;;;;5041896;28;11554;-65
2023/02/02 18:09:32;;;;;;;;;34.00;28.25;;;;;;;;5008828;28;8836;-65
2023/02/02 18:11:57;;;;;;;;;36.25;28.75;;;;;;;;5010473;28;11599;-66
2023/02/02 18:14:23;;;;;;;;;33.00;30.75;;;;;;;;5010298;28;11525;-65
2023/02/02 18:16:48;;;;;;;;;41.33;35.00;;;;;;;;5010121;28;8845;-65
2023/02/02 18:19:13;;;;;;;;;42.00;38.00;;;;;;;;5010100;28;8830;-66
2023/02/02 18:21:38;;;;;;;;;44.00;39.00;;;;;;;;5010003;28;8879;-65
2023/02/02 18:24:04;;;;;;;;;36.33;33.33;;;;;;;;5009929;28;8818;-65
2023/02/02 18:26:31;;;;;;;;;32.75;32.25;;;;;;;;5010370;28;9599;-66
2023/02/02 18:28:56;;;;;;;;;35.00;31.67;;;;;;;;5010307;28;9609;-65
2023/02/02 18:31:22;;;;;;;;;48.33;40.33;;;;;;;;5009881;28;11578;-66
2023/02/02 18:33:48;;;;;;;;;44.33;38.33;;;;;;;;5009576;28;8908;-66
2023/02/02 18:36:16;;;;;;;;;40.67;35.33;;;;;;;;5009986;28;8814;-66
2023/02/02 18:38:44;;;;;;;;;35.00;31.00;;;;;;;;5041733;28;8840;-65
2023/02/02 18:41:09;;;;;;;;;34.00;29.25;;;;;;;;5009537;28;11585;-66
2023/02/02 18:43:35;;;;;;;;;40.67;31.67;;;;;;;;5009544;28;11571;-66
2023/02/02 18:46:03;;;;;;;;;35.00;27.00;;;;;;;;5009480;28;8876;-66
2023/02/02 18:48:28;;;;;;;;;33.33;30.67;;;;;;;;5009326;28;9651;-66
2023/02/02 18:50:53;;;;;;;;;35.67;30.00;;;;;;;;5041361;28;11602;-64
2023/02/02 18:53:19;;;;;;;;;37.67;32.67;;;;;;;;5009081;28;8897;-66
2023/02/02 18:55:44;;;;;;;;;47.00;38.67;;;;;;;;5009451;28;8806;-66
2023/02/02 18:58:13;;;;;;;;;53.67;39.33;;;;;;;;5009567;28;8803;-65
2023/02/02 19:00:38;;;;;;;;;45.33;39.00;;;;;;;;5009369;28;9775;-66
2023/02/02 19:03:03;;;;;;;;;43.33;41.00;;;;;;;;5009106;28;9015;-65
2023/02/02 19:08:12;;;;;;;;;34.00;32.67;;;;;;;;5004809;28;8798;-65
2023/02/02 19:10:38;;;;;;;;;53.00;43.00;;;;;;;;5009021;28;11692;-66
2023/02/02 19:13:13;;;;;;;;;52.33;39.00;;;;;;;;5008600;28;8790;-65
2023/02/02 19:15:40;;;;;;;;;38.33;35.67;;;;;;;;5006317;28;8850;-65
2023/02/02 19:18:16;;;;;;;;;51.00;37.67;;;;;;;;5008183;28;8814;-66
2023/02/02 19:20:42;;;;;;;;;36.00;33.67;;;;;;;;5002699;28;11663;-65
2023/02/02 19:23:12;;;;;;;;;31.25;28.00;;;;;;;;4996261;28;11596;-70
2023/02/02 19:25:41;;;;;;;;;34.00;31.00;;;;;;;;4988042;28;8936;-67
2023/02/02 19:28:12;;;;;;;;;34.75;31.50;;;;;;;;4987632;28;11573;-66
2023/02/02 19:30:43;;;;;;;;;33.00;29.00;;;;;;;;4990031;28;11561;-65
2023/02/02 19:33:11;;;;;;;;;35.00;33.50;;;;;;;;4988193;28;11760;-66
2023/02/02 19:35:38;;;;;;;;;35.75;32.50;;;;;;;;4990210;28;11673;-65
2023/02/02 19:38:03;;;;;;;;;38.25;32.50;;;;;;;;4989738;28;11672;-66
2023/02/02 19:40:28;;;;;;;;;39.25;32.25;;;;;;;;4989472;28;11583;-66
2023/02/02 19:44:10;;;;;;;;;42.67;34.00;;;;;;;;5107298;27;9517;-65
2023/02/02 19:46:39;;;;;;;;;50.00;40.67;;;;;;;;5115970;27;11501;-65
2023/02/02 19:49:13;;;;;;;;;41.33;35.33;;;;;;;;5114389;28;8814;-66
2023/02/02 19:51:45;;;;;;;;;46.00;38.67;;;;;;;;5106071;28;8795;-66
2023/02/02 19:54:19;;;;;;;;;42.00;37.67;;;;;;;;5106852;28;11545;-67
2023/02/02 19:56:47;;;;;;;;;37.33;36.00;;;;;;;;5107233;28;11526;-68